Terminal Aerodrome Forecast
Issued by NWS

Home | Current Version | Previous Version | Text Only | Print | Product List | Glossary On
Versions: 1 2 3 4 5 6 7 8 9 10 11 12 13 14 15 16 17 18 19 20 21 22 23 24 25 26 27 28 29 30 31 32 33 34 35
000
FTUS43 KDLH 190721 AAB
TAFBRD
TAF AMD
KBRD 190721Z 1907/2006 17004KT 2SM BR BKN004
      TEMPO 1907/1911 1/4SM FG VV002
     FM191500 18007KT 6SM BR SCT007
     FM191900 17006KT 5SM BR OVC007
     FM200000 17004KT 5SM -FZDZ BR OVC007=

USA.gov is the U.S. government's official web portal to all federal, state and local government web resources and services.